Time,TemperatureF,DewpointF,PressureIn,WindDirection,WindDirectionDegrees,WindSpeedMPH,WindSpeedGustMPH,Humidity,HourlyPrecipIn,Conditions,Clouds,dailyrainin,SolarRadiationWatts/m^2,SoftwareType,DateUTC
2013-04-22 00:03:00,68.0,66.0,-100.00,NW,312,1.0,5.0,94,0.01,,,0.13,0.000000,,2013-04-22 04:03:00,
2013-04-22 00:11:00,68.0,67.0,-100.00,North,357,1.0,3.0,95,0.00,,,0.13,0.000000,,2013-04-22 04:11:00,
2013-04-22 00:33:00,68.0,67.0,-100.00,North,357,1.0,3.0,95,0.00,,,0.13,0.000000,,2013-04-22 04:33:00,
2013-04-22 00:43:00,68.0,67.0,-100.00,North,357,1.0,3.0,95,0.00,,,0.13,0.000000,,2013-04-22 04:43:00,
2013-04-22 00:53:00,68.0,67.0,-100.00,North,357,1.0,3.0,95,0.00,,,0.13,0.000000,,2013-04-22 04:53:00,
2013-04-22 01:03:00,68.0,67.0,-100.00,North,357,1.0,3.0,95,0.00,,,0.13,0.000000,,2013-04-22 05:03:00,
2013-04-22 01:11:00,68.0,67.0,-100.00,SSW,202,2.0,3.0,96,0.00,,,0.13,0.000000,,2013-04-22 05:11:00,
2013-04-22 01:42:00,68.0,67.0,-100.00,SSW,202,2.0,3.0,96,0.00,,,0.13,0.000000,,2013-04-22 05:42:00,
2013-04-22 01:52:00,68.0,67.0,-100.00,SSW,202,2.0,3.0,96,0.00,,,0.13,0.000000,,2013-04-22 05:52:00,
2013-04-22 02:02:00,68.0,67.0,-100.00,SSW,202,2.0,3.0,96,0.00,,,0.13,0.000000,,2013-04-22 06:02:00,
2013-04-22 02:11:00,68.0,67.0,-100.00,ENE,61,0.0,2.0,96,0.01,,,0.14,0.000000,,2013-04-22 06:11:00,
2013-04-22 02:32:00,68.0,67.0,-100.00,ENE,61,0.0,2.0,96,0.01,,,0.14,0.000000,,2013-04-22 06:32:00,
2013-04-22 02:42:00,68.0,67.0,-100.00,ENE,61,0.0,2.0,96,0.01,,,0.14,0.000000,,2013-04-22 06:42:00,
2013-04-22 02:52:00,68.0,67.0,-100.00,ENE,61,0.0,2.0,96,0.01,,,0.14,0.000000,,2013-04-22 06:52:00,
2013-04-22 03:01:00,68.0,67.0,-100.00,ENE,61,0.0,2.0,96,0.01,,,0.14,0.000000,,2013-04-22 07:01:00,
2013-04-22 03:11:00,68.0,67.0,-100.00,NNW,341,0.0,2.0,96,0.00,,,0.14,0.000000,,2013-04-22 07:11:00,
2013-04-22 03:32:00,68.0,67.0,-100.00,NNW,341,0.0,2.0,96,0.00,,,0.14,0.000000,,2013-04-22 07:32:00,
2013-04-22 03:42:00,68.0,67.0,-100.00,NNW,341,0.0,2.0,96,0.00,,,0.14,0.000000,,2013-04-22 07:42:00,
2013-04-22 03:52:00,68.0,67.0,-100.00,NNW,341,0.0,2.0,96,0.00,,,0.14,0.000000,,2013-04-22 07:52:00,
2013-04-22 04:02:00,68.0,67.0,-100.00,NNW,341,0.0,2.0,96,0.00,,,0.14,0.000000,,2013-04-22 08:02:00,
2013-04-22 04:11:00,68.0,67.0,-100.00,NNW,336,2.0,4.0,96,0.00,,,0.14,0.000000,,2013-04-22 08:11:00,
2013-04-22 04:32:00,68.0,67.0,-100.00,NNW,336,2.0,4.0,96,0.00,,,0.14,0.000000,,2013-04-22 08:32:00,
2013-04-22 04:42:00,68.0,67.0,-100.00,NNW,336,2.0,4.0,96,0.00,,,0.14,0.000000,,2013-04-22 08:42:00,
2013-04-22 04:53:00,68.0,67.0,-100.00,NNW,336,2.0,4.0,96,0.00,,,0.14,0.000000,,2013-04-22 08:53:00,
2013-04-22 05:01:00,68.0,67.0,-100.00,NNW,336,2.0,4.0,96,0.00,,,0.14,0.000000,,2013-04-22 09:01:00,
2013-04-22 05:11:00,67.0,66.0,-100.00,ENE,60,0.0,2.0,96,0.00,,,0.13,0.000000,,2013-04-22 09:11:00,
2013-04-22 05:33:00,67.0,66.0,-100.00,ENE,60,0.0,2.0,96,0.00,,,0.13,0.000000,,2013-04-22 09:33:00,
2013-04-22 05:42:00,67.0,66.0,-100.00,ENE,60,0.0,2.0,96,0.00,,,0.13,0.000000,,2013-04-22 09:42:00,
2013-04-22 05:53:00,67.0,66.0,-100.00,ENE,60,0.0,2.0,96,0.00,,,0.13,0.000000,,2013-04-22 09:53:00,
2013-04-22 06:03:00,67.0,66.0,-100.00,ENE,60,0.0,2.0,96,0.00,,,0.13,0.000000,,2013-04-22 10:03:00,
2013-04-22 06:11:00,67.0,66.0,-100.00,ENE,59,1.0,2.0,96,0.00,,,0.13,0.000000,,2013-04-22 10:11:00,
2013-04-22 06:33:00,67.0,66.0,-100.00,ENE,59,1.0,2.0,96,0.00,,,0.13,0.000000,,2013-04-22 10:33:00,
2013-04-22 06:42:00,67.0,66.0,-100.00,ENE,59,1.0,2.0,96,0.00,,,0.13,0.000000,,2013-04-22 10:42:00,
2013-04-22 06:53:00,67.0,66.0,-100.00,ENE,59,1.0,2.0,96,0.00,,,0.13,0.000000,,2013-04-22 10:53:00,
2013-04-22 07:02:00,67.0,66.0,-100.00,ENE,59,1.0,2.0,96,0.00,,,0.13,0.000000,,2013-04-22 11:02:00,
2013-04-22 07:11:00,67.0,66.0,-100.00,SSE,167,1.0,3.0,96,0.00,,,0.13,0.000000,,2013-04-22 11:11:00,
2013-04-22 07:42:00,67.0,66.0,-100.00,SSE,167,1.0,3.0,96,0.00,,,0.13,0.000000,,2013-04-22 11:42:00,
2013-04-22 07:53:00,67.0,66.0,-100.00,SSE,167,1.0,3.0,96,0.00,,,0.13,0.000000,,2013-04-22 11:53:00,
2013-04-22 08:02:00,67.0,66.0,-100.00,SSE,167,1.0,3.0,96,0.00,,,0.13,0.000000,,2013-04-22 12:02:00,
2013-04-22 09:11:00,70.0,67.0,-100.00,ENE,60,2.0,5.0,89,-99.99,,,0.13,122.000000,,2013-04-22 13:11:00,
2013-04-22 09:42:00,70.0,67.0,-100.00,ENE,60,2.0,5.0,89,-99.99,,,0.13,122.000000,,2013-04-22 13:42:00,
2013-04-22 09:53:00,70.0,67.0,-100.00,ENE,60,2.0,5.0,89,-99.99,,,0.13,122.000000,,2013-04-22 13:53:00,
2013-04-22 10:02:00,70.0,67.0,-100.00,ENE,60,2.0,5.0,89,-99.99,,,0.13,122.000000,,2013-04-22 14:02:00,
2013-04-22 10:11:00,74.0,68.0,-100.00,ENE,57,4.0,9.0,83,0.01,,,0.14,246.000000,,2013-04-22 14:11:00,
2013-04-22 10:33:00,74.0,68.0,-100.00,ENE,57,4.0,9.0,83,0.01,,,0.14,246.000000,,2013-04-22 14:33:00,
2013-04-22 10:42:00,74.0,68.0,-100.00,ENE,57,4.0,9.0,83,0.01,,,0.14,246.000000,,2013-04-22 14:42:00,
2013-04-22 10:52:00,74.0,68.0,-100.00,ENE,57,4.0,9.0,83,0.01,,,0.14,246.000000,,2013-04-22 14:52:00,
2013-04-22 11:02:00,74.0,68.0,-100.00,ENE,57,4.0,9.0,83,0.01,,,0.14,246.000000,,2013-04-22 15:02:00,
2013-04-22 11:11:00,79.0,70.0,-100.00,ENE,71,3.0,7.0,74,0.00,,,0.14,377.000000,,2013-04-22 15:11:00,
2013-04-22 11:33:00,79.0,70.0,-100.00,ENE,71,3.0,7.0,74,0.00,,,0.14,377.000000,,2013-04-22 15:33:00,
2013-04-22 11:43:00,79.0,70.0,-100.00,ENE,71,3.0,7.0,74,0.00,,,0.14,377.000000,,2013-04-22 15:43:00,
2013-04-22 11:53:00,79.0,70.0,-100.00,ENE,71,3.0,7.0,74,0.00,,,0.14,377.000000,,2013-04-22 15:53:00,
2013-04-22 12:03:00,79.0,70.0,-100.00,ENE,71,3.0,7.0,74,0.00,,,0.14,377.000000,,2013-04-22 16:03:00,
2013-04-22 12:11:00,81.0,70.0,-100.00,ENE,71,4.0,8.0,70,0.00,,,0.14,511.000000,,2013-04-22 16:11:00,
2013-04-22 12:33:00,81.0,70.0,-100.00,ENE,71,4.0,8.0,70,0.00,,,0.14,511.000000,,2013-04-22 16:33:00,
2013-04-22 12:42:00,81.0,70.0,-100.00,ENE,71,4.0,8.0,70,0.00,,,0.14,511.000000,,2013-04-22 16:42:00,
2013-04-22 12:52:00,81.0,70.0,-100.00,ENE,71,4.0,8.0,70,0.00,,,0.14,511.000000,,2013-04-22 16:52:00,
2013-04-22 13:02:00,81.0,70.0,-100.00,ENE,71,4.0,8.0,70,0.00,,,0.14,511.000000,,2013-04-22 17:02:00,
2013-04-22 13:11:00,83.0,70.0,-100.00,NNE,19,2.0,8.0,64,0.00,,,0.14,471.000000,,2013-04-22 17:11:00,
2013-04-22 13:32:00,83.0,70.0,-100.00,NNE,19,2.0,8.0,64,0.00,,,0.14,471.000000,,2013-04-22 17:32:00,
2013-04-22 13:43:00,83.0,70.0,-100.00,NNE,19,2.0,8.0,64,0.00,,,0.14,471.000000,,2013-04-22 17:43:00,
2013-04-22 13:52:00,83.0,70.0,-100.00,NNE,19,2.0,8.0,64,0.00,,,0.14,471.000000,,2013-04-22 17:52:00,
2013-04-22 14:02:00,83.0,70.0,-100.00,NNE,19,2.0,8.0,64,0.00,,,0.14,471.000000,,2013-04-22 18:02:00,
2013-04-22 14:11:00,85.0,70.0,-100.00,NW,320,2.0,5.0,61,0.00,,,0.14,481.000000,,2013-04-22 18:11:00,
2013-04-22 14:42:00,85.0,70.0,-100.00,NW,320,2.0,5.0,61,0.00,,,0.14,481.000000,,2013-04-22 18:42:00,
2013-04-22 14:52:00,85.0,70.0,-100.00,NW,320,2.0,5.0,61,0.00,,,0.14,481.000000,,2013-04-22 18:52:00,
2013-04-22 15:02:00,85.0,70.0,-100.00,NW,320,2.0,5.0,61,0.00,,,0.14,481.000000,,2013-04-22 19:02:00,
2013-04-22 15:11:00,80.0,68.0,-100.00,SW,236,4.0,8.0,66,0.05,,,0.19,493.000000,,2013-04-22 19:11:00,
2013-04-22 15:42:00,80.0,68.0,-100.00,SW,236,4.0,8.0,66,0.05,,,0.19,493.000000,,2013-04-22 19:42:00,
2013-04-22 15:53:00,80.0,68.0,-100.00,SW,236,4.0,8.0,66,0.05,,,0.19,493.000000,,2013-04-22 19:53:00,
2013-04-22 16:02:00,80.0,68.0,-100.00,SW,236,4.0,8.0,66,0.05,,,0.19,493.000000,,2013-04-22 20:02:00,
2013-04-22 16:11:00,73.0,70.0,-100.00,South,182,2.0,9.0,90,0.09,,,0.19,142.000000,,2013-04-22 20:11:00,
2013-04-22 16:42:00,73.0,70.0,-100.00,South,182,2.0,9.0,90,0.09,,,0.19,142.000000,,2013-04-22 20:42:00,
2013-04-22 16:52:00,73.0,70.0,-100.00,South,182,2.0,9.0,90,0.09,,,0.19,142.000000,,2013-04-22 20:52:00,
2013-04-22 17:02:00,73.0,70.0,-100.00,South,182,2.0,9.0,90,0.09,,,0.19,142.000000,,2013-04-22 21:02:00,
2013-04-22 17:11:00,75.0,71.0,-100.00,NNW,344,2.0,8.0,87,0.04,,,0.21,183.000000,,2013-04-22 21:11:00,
2013-04-22 17:33:00,75.0,71.0,-100.00,NNW,344,2.0,8.0,87,0.04,,,0.21,183.000000,,2013-04-22 21:33:00,
2013-04-22 17:43:00,75.0,71.0,-100.00,NNW,344,2.0,8.0,87,0.04,,,0.21,183.000000,,2013-04-22 21:43:00,
2013-04-22 17:53:00,75.0,71.0,-100.00,NNW,344,2.0,8.0,87,0.04,,,0.21,183.000000,,2013-04-22 21:53:00,
2013-04-22 18:03:00,75.0,71.0,-100.00,NNW,344,2.0,8.0,87,0.04,,,0.21,183.000000,,2013-04-22 22:03:00,
2013-04-22 18:11:00,74.0,71.0,-100.00,NE,53,2.0,6.0,91,0.03,,,0.24,129.000000,,2013-04-22 22:11:00,
2013-04-22 18:42:00,74.0,71.0,-100.00,NE,53,2.0,6.0,91,0.03,,,0.24,129.000000,,2013-04-22 22:42:00,
2013-04-22 18:52:00,74.0,71.0,-100.00,NE,53,2.0,6.0,91,0.03,,,0.24,129.000000,,2013-04-22 22:52:00,
2013-04-22 19:02:00,74.0,71.0,-100.00,NE,53,2.0,6.0,91,0.03,,,0.24,129.000000,,2013-04-22 23:02:00,
2013-04-22 19:11:00,73.0,70.0,-100.00,ENE,66,1.0,5.0,90,0.00,,,0.24,99.000000,,2013-04-22 23:11:00,
2013-04-22 19:33:00,73.0,70.0,-100.00,ENE,66,1.0,5.0,90,0.00,,,0.24,99.000000,,2013-04-22 23:33:00,
2013-04-22 19:43:00,73.0,70.0,-100.00,ENE,66,1.0,5.0,90,0.00,,,0.24,99.000000,,2013-04-22 23:43:00,
2013-04-22 19:52:00,73.0,70.0,-100.00,ENE,66,1.0,5.0,90,0.00,,,0.24,99.000000,,2013-04-22 23:52:00,
2013-04-22 20:02:00,73.0,70.0,-100.00,ENE,66,1.0,5.0,90,0.00,,,0.24,99.000000,,2013-04-23 00:02:00,
2013-04-22 21:11:00,71.0,69.0,-100.00,East,84,3.0,6.0,92,-99.99,,,0.24,0.000000,,2013-04-23 01:11:00,
2013-04-22 21:42:00,71.0,69.0,-100.00,East,84,3.0,6.0,92,-99.99,,,0.24,0.000000,,2013-04-23 01:42:00,
2013-04-22 21:52:00,71.0,69.0,-100.00,East,84,3.0,6.0,92,-99.99,,,0.24,0.000000,,2013-04-23 01:52:00,
2013-04-22 22:02:00,71.0,69.0,-100.00,East,84,3.0,6.0,92,-99.99,,,0.24,0.000000,,2013-04-23 02:02:00,
2013-04-22 22:11:00,69.0,67.0,-100.00,North,352,0.0,4.0,94,0.00,,,0.24,0.000000,,2013-04-23 02:11:00,
2013-04-22 22:33:00,69.0,67.0,-100.00,North,352,0.0,4.0,94,0.00,,,0.24,0.000000,,2013-04-23 02:33:00,
2013-04-22 22:42:00,69.0,67.0,-100.00,North,352,0.0,4.0,94,0.00,,,0.24,0.000000,,2013-04-23 02:42:00,
2013-04-22 22:52:00,69.0,67.0,-100.00,North,352,0.0,4.0,94,0.00,,,0.24,0.000000,,2013-04-23 02:52:00,
2013-04-22 23:02:00,69.0,67.0,-100.00,North,352,0.0,4.0,94,0.00,,,0.24,0.000000,,2013-04-23 03:02:00,
2013-04-22 23:11:00,67.0,66.0,-100.00,NE,36,0.0,2.0,95,0.00,,,-99.99,0.000000,,2013-04-23 03:11:00,
2013-04-22 23:33:00,67.0,66.0,-100.00,NE,36,0.0,2.0,95,0.00,,,-99.99,0.000000,,2013-04-23 03:33:00,
2013-04-22 23:43:00,67.0,66.0,-100.00,NE,36,0.0,2.0,95,0.00,,,-99.99,0.000000,,2013-04-23 03:43:00,
2013-04-22 23:53:00,67.0,66.0,-100.00,NE,36,0.0,2.0,95,0.00,,,-99.99,0.000000,,2013-04-23 03:53:00,